sensor_id;sensor_type;location;lat;lon;timestamp;temperature;humidity
73112;HTU21D;61301;51.956;5.876;2024-01-15T00:01:03;7.33;63.86
73112;HTU21D;61301;51.956;5.876;2024-01-15T00:03:29;7.32;63.13
73112;HTU21D;61301;51.956;5.876;2024-01-15T00:05:55;7.25;62.85
73112;HTU21D;61301;51.956;5.876;2024-01-15T00:08:21;7.12;62.63
73112;HTU21D;61301;51.956;5.876;2024-01-15T00:10:47;7.04;63.03
73112;HTU21D;61301;51.956;5.876;2024-01-15T00:13:13;7.02;62.79
73112;HTU21D;61301;51.956;5.876;2024-01-15T00:15:39;7.03;62.95
73112;HTU21D;61301;51.956;5.876;2024-01-15T00:18:05;6.99;63.02
73112;HTU21D;61301;51.956;5.876;2024-01-15T00:20:31;7.07;63.02
73112;HTU21D;61301;51.956;5.876;2024-01-15T00:22:57;7.01;62.82
73112;HTU21D;61301;51.956;5.876;2024-01-15T00:25:23;6.96;62.53
73112;HTU21D;61301;51.956;5.876;2024-01-15T00:27:49;6.96;62.71
73112;HTU21D;61301;51.956;5.876;2024-01-15T00:30:15;6.90;62.50
73112;HTU21D;61301;51.956;5.876;2024-01-15T00:32:42;6.93;62.36
73112;HTU21D;61301;51.956;5.876;2024-01-15T00:35:08;6.94;62.35
73112;HTU21D;61301;51.956;5.876;2024-01-15T00:37:34;6.88;62.20
73112;HTU21D;61301;51.956;5.876;2024-01-15T00:40:00;6.80;62.33
73112;HTU21D;61301;51.956;5.876;2024-01-15T00:42:26;6.81;62.29
73112;HTU21D;61301;51.956;5.876;2024-01-15T00:44:53;6.78;62.31
73112;HTU21D;61301;51.956;5.876;2024-01-15T00:47:20;6.74;62.47
73112;HTU21D;61301;51.956;5.876;2024-01-15T00:49:46;6.83;62.84
73112;HTU21D;61301;51.956;5.876;2024-01-15T00:52:12;6.88;62.48
73112;HTU21D;61301;51.956;5.876;2024-01-15T00:54:38;6.82;62.73
73112;HTU21D;61301;51.956;5.876;2024-01-15T00:57:05;6.80;62.60
73112;HTU21D;61301;51.956;5.876;2024-01-15T00:59:31;6.80;62.28
73112;HTU21D;61301;51.956;5.876;2024-01-15T01:01:57;6.64;62.34
73112;HTU21D;61301;51.956;5.876;2024-01-15T01:04:22;6.64;62.50
73112;HTU21D;61301;51.956;5.876;2024-01-15T01:06:49;6.60;62.32
73112;HTU21D;61301;51.956;5.876;2024-01-15T01:09:15;6.53;62.66
73112;HTU21D;61301;51.956;5.876;2024-01-15T01:11:41;6.55;62.89
73112;HTU21D;61301;51.956;5.876;2024-01-15T01:14:07;6.65;62.98
73112;HTU21D;61301;51.956;5.876;2024-01-15T01:16:33;6.73;63.16
73112;HTU21D;61301;51.956;5.876;2024-01-15T01:19:05;6.72;62.68
73112;HTU21D;61301;51.956;5.876;2024-01-15T01:21:33;6.70;62.77
73112;HTU21D;61301;51.956;5.876;2024-01-15T01:23:59;6.78;62.72
73112;HTU21D;61301;51.956;5.876;2024-01-15T01:26:25;6.85;62.24
73112;HTU21D;61301;51.956;5.876;2024-01-15T01:28:51;6.83;62.29
73112;HTU21D;61301;51.956;5.876;2024-01-15T01:31:17;6.79;62.15
73112;HTU21D;61301;51.956;5.876;2024-01-15T01:33:43;6.80;61.84
73112;HTU21D;61301;51.956;5.876;2024-01-15T01:36:09;6.85;61.91
73112;HTU21D;61301;51.956;5.876;2024-01-15T01:38:36;6.83;61.61
73112;HTU21D;61301;51.956;5.876;2024-01-15T01:41:02;6.78;61.63
73112;HTU21D;61301;51.956;5.876;2024-01-15T01:43:28;6.80;61.90
73112;HTU21D;61301;51.956;5.876;2024-01-15T01:45:56;6.82;62.05
73112;HTU21D;61301;51.956;5.876;2024-01-15T01:48:25;6.80;61.75
73112;HTU21D;61301;51.956;5.876;2024-01-15T01:50:56;6.74;61.47
73112;HTU21D;61301;51.956;5.876;2024-01-15T01:53:23;6.66;61.44
73112;HTU21D;61301;51.956;5.876;2024-01-15T01:55:50;6.63;61.46
73112;HTU21D;61301;51.956;5.876;2024-01-15T01:58:17;6.63;61.62
73112;HTU21D;61301;51.956;5.876;2024-01-15T02:00:44;6.65;61.48
73112;HTU21D;61301;51.956;5.876;2024-01-15T02:03:10;6.74;62.08
73112;HTU21D;61301;51.956;5.876;2024-01-15T02:05:36;6.81;62.34
73112;HTU21D;61301;51.956;5.876;2024-01-15T02:08:03;6.84;61.77
73112;HTU21D;61301;51.956;5.876;2024-01-15T02:10:29;6.86;61.34
73112;HTU21D;61301;51.956;5.876;2024-01-15T02:12:55;6.78;61.17
73112;HTU21D;61301;51.956;5.876;2024-01-15T02:15:21;6.79;61.05
73112;HTU21D;61301;51.956;5.876;2024-01-15T02:17:59;6.83;61.36
73112;HTU21D;61301;51.956;5.876;2024-01-15T02:20:26;6.84;61.05
73112;HTU21D;61301;51.956;5.876;2024-01-15T02:22:52;6.81;60.69
73112;HTU21D;61301;51.956;5.876;2024-01-15T02:25:19;6.83;60.70
73112;HTU21D;61301;51.956;5.876;2024-01-15T02:27:46;6.89;60.91
73112;HTU21D;61301;51.956;5.876;2024-01-15T02:30:12;6.89;60.84
73112;HTU21D;61301;51.956;5.876;2024-01-15T02:32:38;6.94;60.24
73112;HTU21D;61301;51.956;5.876;2024-01-15T02:35:04;6.90;60.15
73112;HTU21D;61301;51.956;5.876;2024-01-15T02:37:30;6.86;60.19
73112;HTU21D;61301;51.956;5.876;2024-01-15T02:39:56;6.83;60.06
73112;HTU21D;61301;51.956;5.876;2024-01-15T02:42:22;6.79;60.19
73112;HTU21D;61301;51.956;5.876;2024-01-15T02:44:48;6.76;59.93
73112;HTU21D;61301;51.956;5.876;2024-01-15T02:47:15;6.78;60.38
73112;HTU21D;61301;51.956;5.876;2024-01-15T02:49:41;6.81;60.31
73112;HTU21D;61301;51.956;5.876;2024-01-15T02:52:07;6.83;60.42
73112;HTU21D;61301;51.956;5.876;2024-01-15T02:54:33;6.98;60.57
73112;HTU21D;61301;51.956;5.876;2024-01-15T02:56:59;7.08;60.64
73112;HTU21D;61301;51.956;5.876;2024-01-15T02:59:25;7.10;60.02
73112;HTU21D;61301;51.956;5.876;2024-01-15T03:01:51;7.11;60.10
73112;HTU21D;61301;51.956;5.876;2024-01-15T03:04:17;7.16;59.96
73112;HTU21D;61301;51.956;5.876;2024-01-15T03:06:43;7.17;59.74
73112;HTU21D;61301;51.956;5.876;2024-01-15T03:09:09;7.18;60.06
73112;HTU21D;61301;51.956;5.876;2024-01-15T03:11:39;7.16;59.83
73112;HTU21D;61301;51.956;5.876;2024-01-15T03:14:05;7.09;59.77
73112;HTU21D;61301;51.956;5.876;2024-01-15T03:16:31;7.00;59.70
73112;HTU21D;61301;51.956;5.876;2024-01-15T03:18:57;6.94;59.78
73112;HTU21D;61301;51.956;5.876;2024-01-15T03:21:23;6.89;59.97
73112;HTU21D;61301;51.956;5.876;2024-01-15T03:23:49;6.89;59.96
73112;HTU21D;61301;51.956;5.876;2024-01-15T03:26:15;6.88;60.18
73112;HTU21D;61301;51.956;5.876;2024-01-15T03:28:41;6.85;60.01
73112;HTU21D;61301;51.956;5.876;2024-01-15T03:31:07;6.88;60.10
73112;HTU21D;61301;51.956;5.876;2024-01-15T03:33:33;6.96;60.73
73112;HTU21D;61301;51.956;5.876;2024-01-15T03:35:59;7.10;60.67
73112;HTU21D;61301;51.956;5.876;2024-01-15T03:38:28;7.04;60.24
73112;HTU21D;61301;51.956;5.876;2024-01-15T03:40:54;7.07;60.06
73112;HTU21D;61301;51.956;5.876;2024-01-15T03:43:20;7.05;59.97
73112;HTU21D;61301;51.956;5.876;2024-01-15T03:45:46;6.98;59.73
73112;HTU21D;61301;51.956;5.876;2024-01-15T03:48:12;6.90;59.63
73112;HTU21D;61301;51.956;5.876;2024-01-15T03:50:38;6.79;59.77
73112;HTU21D;61301;51.956;5.876;2024-01-15T03:53:04;6.79;60.23
73112;HTU21D;61301;51.956;5.876;2024-01-15T03:55:30;6.88;60.37
73112;HTU21D;61301;51.956;5.876;2024-01-15T03:57:56;6.88;60.12
73112;HTU21D;61301;51.956;5.876;2024-01-15T04:00:22;6.98;60.70
73112;HTU21D;61301;51.956;5.876;2024-01-15T04:02:48;7.14;60.86
73112;HTU21D;61301;51.956;5.876;2024-01-15T04:05:14;7.25;60.44
73112;HTU21D;61301;51.956;5.876;2024-01-15T04:07:40;7.31;60.32
73112;HTU21D;61301;51.956;5.876;2024-01-15T04:10:06;7.42;61.06
73112;HTU21D;61301;51.956;5.876;2024-01-15T04:12:32;7.67;61.09
73112;HTU21D;61301;51.956;5.876;2024-01-15T04:14:58;7.63;59.86
73112;HTU21D;61301;51.956;5.876;2024-01-15T04:17:24;7.49;59.71
73112;HTU21D;61301;51.956;5.876;2024-01-15T04:19:50;7.38;59.79
73112;HTU21D;61301;51.956;5.876;2024-01-15T04:22:16;7.44;60.00
73112;HTU21D;61301;51.956;5.876;2024-01-15T04:24:42;7.35;59.70
73112;HTU21D;61301;51.956;5.876;2024-01-15T04:27:08;7.35;59.70
73112;HTU21D;61301;51.956;5.876;2024-01-15T04:29:34;7.34;59.73
73112;HTU21D;61301;51.956;5.876;2024-01-15T04:32:03;7.41;59.39
73112;HTU21D;61301;51.956;5.876;2024-01-15T04:34:29;7.27;58.89
73112;HTU21D;61301;51.956;5.876;2024-01-15T04:36:55;7.08;59.09
73112;HTU21D;61301;51.956;5.876;2024-01-15T04:39:21;7.01;59.58
73112;HTU21D;61301;51.956;5.876;2024-01-15T04:41:48;6.93;59.90
73112;HTU21D;61301;51.956;5.876;2024-01-15T04:44:14;6.93;60.01
73112;HTU21D;61301;51.956;5.876;2024-01-15T04:46:40;6.88;60.29
73112;HTU21D;61301;51.956;5.876;2024-01-15T04:49:06;6.93;60.54
73112;HTU21D;61301;51.956;5.876;2024-01-15T04:51:33;6.86;60.74
73112;HTU21D;61301;51.956;5.876;2024-01-15T04:54:00;6.83;60.52
73112;HTU21D;61301;51.956;5.876;2024-01-15T04:56:26;6.76;60.87
73112;HTU21D;61301;51.956;5.876;2024-01-15T04:58:52;6.83;60.96
73112;HTU21D;61301;51.956;5.876;2024-01-15T05:01:18;6.94;60.92
73112;HTU21D;61301;51.956;5.876;2024-01-15T05:03:44;6.96;60.71
73112;HTU21D;61301;51.956;5.876;2024-01-15T05:06:10;6.90;60.64
73112;HTU21D;61301;51.956;5.876;2024-01-15T05:08:36;6.89;60.57
73112;HTU21D;61301;51.956;5.876;2024-01-15T05:11:02;6.83;60.43
73112;HTU21D;61301;51.956;5.876;2024-01-15T05:13:28;6.81;60.65
73112;HTU21D;61301;51.956;5.876;2024-01-15T05:15:54;6.82;60.58
73112;HTU21D;61301;51.956;5.876;2024-01-15T05:18:20;6.76;60.46
73112;HTU21D;61301;51.956;5.876;2024-01-15T05:20:46;6.68;60.51
73112;HTU21D;61301;51.956;5.876;2024-01-15T05:23:12;6.64;60.64
73112;HTU21D;61301;51.956;5.876;2024-01-15T05:25:38;6.63;60.86
73112;HTU21D;61301;51.956;5.876;2024-01-15T05:28:05;6.67;61.18
73112;HTU21D;61301;51.956;5.876;2024-01-15T05:30:31;6.67;60.97
73112;HTU21D;61301;51.956;5.876;2024-01-15T05:32:57;6.66;61.05
73112;HTU21D;61301;51.956;5.876;2024-01-15T05:35:23;6.64;61.02
73112;HTU21D;61301;51.956;5.876;2024-01-15T05:37:49;6.61;61.12
73112;HTU21D;61301;51.956;5.876;2024-01-15T05:40:15;6.54;61.42
73112;HTU21D;61301;51.956;5.876;2024-01-15T05:42:41;6.48;61.61
73112;HTU21D;61301;51.956;5.876;2024-01-15T05:45:07;6.45;61.82
73112;HTU21D;61301;51.956;5.876;2024-01-15T05:47:34;6.45;62.06
73112;HTU21D;61301;51.956;5.876;2024-01-15T05:50:01;6.52;62.05
73112;HTU21D;61301;51.956;5.876;2024-01-15T05:52:27;6.50;62.22
73112;HTU21D;61301;51.956;5.876;2024-01-15T05:54:53;6.58;62.12
73112;HTU21D;61301;51.956;5.876;2024-01-15T05:57:19;6.63;62.04
73112;HTU21D;61301;51.956;5.876;2024-01-15T05:59:45;6.57;62.08
73112;HTU21D;61301;51.956;5.876;2024-01-15T06:02:11;6.58;62.33
73112;HTU21D;61301;51.956;5.876;2024-01-15T06:04:37;6.57;62.42
73112;HTU21D;61301;51.956;5.876;2024-01-15T06:07:03;6.60;62.47
73112;HTU21D;61301;51.956;5.876;2024-01-15T06:09:29;6.71;62.80
73112;HTU21D;61301;51.956;5.876;2024-01-15T06:11:57;6.71;62.45
73112;HTU21D;61301;51.956;5.876;2024-01-15T06:14:23;6.69;62.61
73112;HTU21D;61301;51.956;5.876;2024-01-15T06:16:49;6.74;62.80
73112;HTU21D;61301;51.956;5.876;2024-01-15T06:19:15;6.85;62.73
73112;HTU21D;61301;51.956;5.876;2024-01-15T06:21:41;6.96;62.96
73112;HTU21D;61301;51.956;5.876;2024-01-15T06:24:07;7.00;62.35
73112;HTU21D;61301;51.956;5.876;2024-01-15T06:26:35;6.98;62.17
73112;HTU21D;61301;51.956;5.876;2024-01-15T06:29:01;6.96;62.16
73112;HTU21D;61301;51.956;5.876;2024-01-15T06:31:28;6.88;62.05
73112;HTU21D;61301;51.956;5.876;2024-01-15T06:33:55;6.89;62.23
73112;HTU21D;61301;51.956;5.876;2024-01-15T06:36:21;7.04;62.37
73112;HTU21D;61301;51.956;5.876;2024-01-15T06:38:47;7.04;61.72
73112;HTU21D;61301;51.956;5.876;2024-01-15T06:41:13;7.03;61.67
73112;HTU21D;61301;51.956;5.876;2024-01-15T06:43:39;6.95;61.63
73112;HTU21D;61301;51.956;5.876;2024-01-15T06:46:05;6.82;61.45
73112;HTU21D;61301;51.956;5.876;2024-01-15T06:48:31;6.78;62.11
73112;HTU21D;61301;51.956;5.876;2024-01-15T06:50:57;6.79;62.15
73112;HTU21D;61301;51.956;5.876;2024-01-15T06:53:23;6.88;62.59
73112;HTU21D;61301;51.956;5.876;2024-01-15T06:55:49;7.01;62.62
73112;HTU21D;61301;51.956;5.876;2024-01-15T06:58:17;7.05;62.24
73112;HTU21D;61301;51.956;5.876;2024-01-15T07:00:43;6.89;61.50
73112;HTU21D;61301;51.956;5.876;2024-01-15T07:03:09;6.76;61.21
73112;HTU21D;61301;51.956;5.876;2024-01-15T07:05:35;6.61;61.40
73112;HTU21D;61301;51.956;5.876;2024-01-15T07:08:03;6.53;61.56
73112;HTU21D;61301;51.956;5.876;2024-01-15T07:10:29;6.46;61.67
73112;HTU21D;61301;51.956;5.876;2024-01-15T07:12:55;6.42;61.90
73112;HTU21D;61301;51.956;5.876;2024-01-15T07:15:21;6.38;62.02
73112;HTU21D;61301;51.956;5.876;2024-01-15T07:17:47;6.40;62.15
73112;HTU21D;61301;51.956;5.876;2024-01-15T07:20:13;6.42;62.36
73112;HTU21D;61301;51.956;5.876;2024-01-15T07:22:39;6.39;62.24
73112;HTU21D;61301;51.956;5.876;2024-01-15T07:25:05;6.38;62.35
73112;HTU21D;61301;51.956;5.876;2024-01-15T07:27:32;6.41;62.86
73112;HTU21D;61301;51.956;5.876;2024-01-15T07:29:58;6.40;62.62
73112;HTU21D;61301;51.956;5.876;2024-01-15T07:32:24;6.24;62.90
73112;HTU21D;61301;51.956;5.876;2024-01-15T07:34:50;6.24;63.40
73112;HTU21D;61301;51.956;5.876;2024-01-15T07:37:16;6.24;63.41
73112;HTU21D;61301;51.956;5.876;2024-01-15T07:39:42;6.35;63.54
73112;HTU21D;61301;51.956;5.876;2024-01-15T07:42:08;6.37;63.19
73112;HTU21D;61301;51.956;5.876;2024-01-15T07:44:34;6.48;63.10
73112;HTU21D;61301;51.956;5.876;2024-01-15T07:47:00;6.54;62.86
73112;HTU21D;61301;51.956;5.876;2024-01-15T07:49:26;6.56;62.76
73112;HTU21D;61301;51.956;5.876;2024-01-15T07:51:52;6.51;62.76
73112;HTU21D;61301;51.956;5.876;2024-01-15T07:54:18;6.53;62.86
73112;HTU21D;61301;51.956;5.876;2024-01-15T07:56:58;6.65;63.27
73112;HTU21D;61301;51.956;5.876;2024-01-15T07:59:25;6.67;62.98
73112;HTU21D;61301;51.956;5.876;2024-01-15T08:01:51;6.61;62.59
73112;HTU21D;61301;51.956;5.876;2024-01-15T08:04:18;6.57;62.71
73112;HTU21D;61301;51.956;5.876;2024-01-15T08:06:44;6.51;62.50
73112;HTU21D;61301;51.956;5.876;2024-01-15T08:09:11;6.48;62.82
73112;HTU21D;61301;51.956;5.876;2024-01-15T08:11:42;6.59;63.30
73112;HTU21D;61301;51.956;5.876;2024-01-15T08:14:09;6.66;63.05
73112;HTU21D;61301;51.956;5.876;2024-01-15T08:16:36;6.60;62.66
73112;HTU21D;61301;51.956;5.876;2024-01-15T08:19:02;6.58;62.58
73112;HTU21D;61301;51.956;5.876;2024-01-15T08:21:29;6.49;63.46
73112;HTU21D;61301;51.956;5.876;2024-01-15T08:23:57;6.49;63.14
73112;HTU21D;61301;51.956;5.876;2024-01-15T08:26:24;6.57;63.75
73112;HTU21D;61301;51.956;5.876;2024-01-15T08:28:50;6.66;63.46
73112;HTU21D;61301;51.956;5.876;2024-01-15T08:31:16;6.71;63.10
73112;HTU21D;61301;51.956;5.876;2024-01-15T08:33:42;6.71;63.50
73112;HTU21D;61301;51.956;5.876;2024-01-15T08:36:09;6.68;63.02
73112;HTU21D;61301;51.956;5.876;2024-01-15T08:38:35;6.64;62.76
73112;HTU21D;61301;51.956;5.876;2024-01-15T08:41:02;6.59;62.54
73112;HTU21D;61301;51.956;5.876;2024-01-15T08:43:28;6.52;62.80
73112;HTU21D;61301;51.956;5.876;2024-01-15T08:45:54;6.56;62.94
73112;HTU21D;61301;51.956;5.876;2024-01-15T08:48:20;6.63;63.04
73112;HTU21D;61301;51.956;5.876;2024-01-15T08:50:46;6.57;62.59
73112;HTU21D;61301;51.956;5.876;2024-01-15T08:53:12;6.50;62.69
73112;HTU21D;61301;51.956;5.876;2024-01-15T08:55:38;6.43;62.88
73112;HTU21D;61301;51.956;5.876;2024-01-15T08:58:04;6.43;63.07
73112;HTU21D;61301;51.956;5.876;2024-01-15T09:00:31;6.51;63.19
73112;HTU21D;61301;51.956;5.876;2024-01-15T09:02:57;6.49;63.06
73112;HTU21D;61301;51.956;5.876;2024-01-15T09:05:23;6.52;63.34
73112;HTU21D;61301;51.956;5.876;2024-01-15T09:07:49;6.60;63.27
73112;HTU21D;61301;51.956;5.876;2024-01-15T09:10:18;6.57;63.05
73112;HTU21D;61301;51.956;5.876;2024-01-15T09:12:44;6.61;63.20
73112;HTU21D;61301;51.956;5.876;2024-01-15T09:15:10;6.66;63.26
73112;HTU21D;61301;51.956;5.876;2024-01-15T09:17:36;6.80;63.08
73112;HTU21D;61301;51.956;5.876;2024-01-15T09:20:03;6.82;62.79
73112;HTU21D;61301;51.956;5.876;2024-01-15T09:22:31;6.75;62.66
73112;HTU21D;61301;51.956;5.876;2024-01-15T09:24:58;6.78;63.07
73112;HTU21D;61301;51.956;5.876;2024-01-15T09:27:25;6.83;62.79
73112;HTU21D;61301;51.956;5.876;2024-01-15T09:29:53;6.81;62.68
73112;HTU21D;61301;51.956;5.876;2024-01-15T09:32:20;6.78;62.67
73112;HTU21D;61301;51.956;5.876;2024-01-15T09:34:46;6.71;62.54
73112;HTU21D;61301;51.956;5.876;2024-01-15T09:37:14;6.70;63.04
73112;HTU21D;61301;51.956;5.876;2024-01-15T09:39:40;6.78;63.01
73112;HTU21D;61301;51.956;5.876;2024-01-15T09:42:07;6.96;63.45
73112;HTU21D;61301;51.956;5.876;2024-01-15T09:44:34;7.19;63.25
73112;HTU21D;61301;51.956;5.876;2024-01-15T09:47:00;7.31;62.95
73112;HTU21D;61301;51.956;5.876;2024-01-15T09:49:27;7.46;62.85
73112;HTU21D;61301;51.956;5.876;2024-01-15T09:51:54;7.34;61.80
73112;HTU21D;61301;51.956;5.876;2024-01-15T09:54:20;7.30;61.92
73112;HTU21D;61301;51.956;5.876;2024-01-15T09:56:47;7.14;61.23
73112;HTU21D;61301;51.956;5.876;2024-01-15T09:59:15;6.93;61.22
73112;HTU21D;61301;51.956;5.876;2024-01-15T10:01:43;6.80;61.64
73112;HTU21D;61301;51.956;5.876;2024-01-15T10:04:13;6.78;61.96
73112;HTU21D;61301;51.956;5.876;2024-01-15T10:06:40;6.69;62.37
73112;HTU21D;61301;51.956;5.876;2024-01-15T10:09:12;6.79;62.64
73112;HTU21D;61301;51.956;5.876;2024-01-15T10:11:44;6.95;62.74
73112;HTU21D;61301;51.956;5.876;2024-01-15T10:14:11;7.18;63.37
73112;HTU21D;61301;51.956;5.876;2024-01-15T10:16:40;7.37;62.73
73112;HTU21D;61301;51.956;5.876;2024-01-15T10:19:07;7.41;61.76
73112;HTU21D;61301;51.956;5.876;2024-01-15T10:21:34;7.42;61.46
73112;HTU21D;61301;51.956;5.876;2024-01-15T10:24:03;7.31;60.97
73112;HTU21D;61301;51.956;5.876;2024-01-15T10:26:31;7.25;61.18
73112;HTU21D;61301;51.956;5.876;2024-01-15T10:28:58;7.26;60.97
73112;HTU21D;61301;51.956;5.876;2024-01-15T10:31:25;7.33;61.25
73112;HTU21D;61301;51.956;5.876;2024-01-15T10:33:51;7.42;61.50
73112;HTU21D;61301;51.956;5.876;2024-01-15T10:36:18;7.52;61.28
73112;HTU21D;61301;51.956;5.876;2024-01-15T10:38:44;7.47;60.76
73112;HTU21D;61301;51.956;5.876;2024-01-15T10:41:11;7.52;61.63
73112;HTU21D;61301;51.956;5.876;2024-01-15T10:43:37;7.62;60.98
73112;HTU21D;61301;51.956;5.876;2024-01-15T10:46:03;7.57;60.50
73112;HTU21D;61301;51.956;5.876;2024-01-15T10:48:30;7.59;60.89
73112;HTU21D;61301;51.956;5.876;2024-01-15T10:50:57;7.78;61.28
73112;HTU21D;61301;51.956;5.876;2024-01-15T10:53:24;7.74;60.57
73112;HTU21D;61301;51.956;5.876;2024-01-15T10:55:54;7.62;60.66
73112;HTU21D;61301;51.956;5.876;2024-01-15T10:58:22;7.54;60.86
73112;HTU21D;61301;51.956;5.876;2024-01-15T11:00:49;7.60;61.02
73112;HTU21D;61301;51.956;5.876;2024-01-15T11:03:16;7.44;60.48
73112;HTU21D;61301;51.956;5.876;2024-01-15T11:05:43;7.32;60.68
73112;HTU21D;61301;51.956;5.876;2024-01-15T11:08:10;7.22;60.73
73112;HTU21D;61301;51.956;5.876;2024-01-15T11:10:47;7.18;60.72
73112;HTU21D;61301;51.956;5.876;2024-01-15T11:13:22;7.19;61.31
73112;HTU21D;61301;51.956;5.876;2024-01-15T11:15:56;7.18;60.93
73112;HTU21D;61301;51.956;5.876;2024-01-15T11:18:23;7.13;61.28
73112;HTU21D;61301;51.956;5.876;2024-01-15T11:26:59;7.24;61.29
73112;HTU21D;61301;51.956;5.876;2024-01-15T11:34:21;7.38;61.67
73112;HTU21D;61301;51.956;5.876;2024-01-15T11:37:07;7.44;61.16
73112;HTU21D;61301;51.956;5.876;2024-01-15T11:42:00;7.43;61.08
73112;HTU21D;61301;51.956;5.876;2024-01-15T11:44:27;7.42;61.57
73112;HTU21D;61301;51.956;5.876;2024-01-15T11:50:01;7.35;61.69
73112;HTU21D;61301;51.956;5.876;2024-01-15T11:52:35;7.47;61.82
73112;HTU21D;61301;51.956;5.876;2024-01-15T11:55:14;7.59;61.61
73112;HTU21D;61301;51.956;5.876;2024-01-15T11:57:54;7.55;60.95
73112;HTU21D;61301;51.956;5.876;2024-01-15T12:00:22;7.43;61.15
73112;HTU21D;61301;51.956;5.876;2024-01-15T12:02:49;7.46;61.44
73112;HTU21D;61301;51.956;5.876;2024-01-15T12:05:16;7.48;61.26
73112;HTU21D;61301;51.956;5.876;2024-01-15T12:07:44;7.52;61.31
73112;HTU21D;61301;51.956;5.876;2024-01-15T12:10:12;7.54;61.44
73112;HTU21D;61301;51.956;5.876;2024-01-15T12:13:00;7.70;61.78
73112;HTU21D;61301;51.956;5.876;2024-01-15T12:15:29;7.67;61.85
73112;HTU21D;61301;51.956;5.876;2024-01-15T12:17:56;7.68;61.55
73112;HTU21D;61301;51.956;5.876;2024-01-15T12:20:26;7.70;61.60
73112;HTU21D;61301;51.956;5.876;2024-01-15T12:23:01;7.82;61.68
73112;HTU21D;61301;51.956;5.876;2024-01-15T12:25:32;7.89;61.56
73112;HTU21D;61301;51.956;5.876;2024-01-15T12:28:00;7.94;61.33
73112;HTU21D;61301;51.956;5.876;2024-01-15T12:30:27;8.04;61.12
73112;HTU21D;61301;51.956;5.876;2024-01-15T12:32:54;8.06;60.96
73112;HTU21D;61301;51.956;5.876;2024-01-15T12:35:20;8.14;60.88
73112;HTU21D;61301;51.956;5.876;2024-01-15T12:37:47;8.28;61.03
73112;HTU21D;61301;51.956;5.876;2024-01-15T12:40:13;8.26;60.61
73112;HTU21D;61301;51.956;5.876;2024-01-15T12:42:44;8.33;60.36
73112;HTU21D;61301;51.956;5.876;2024-01-15T12:45:11;8.33;60.20
73112;HTU21D;61301;51.956;5.876;2024-01-15T12:47:39;8.49;60.50
73112;HTU21D;61301;51.956;5.876;2024-01-15T12:50:09;8.46;59.32
73112;HTU21D;61301;51.956;5.876;2024-01-15T12:52:36;8.51;59.02
73112;HTU21D;61301;51.956;5.876;2024-01-15T12:55:07;8.63;59.61
73112;HTU21D;61301;51.956;5.876;2024-01-15T12:57:34;8.66;59.07
73112;HTU21D;61301;51.956;5.876;2024-01-15T13:00:01;8.72;59.39
73112;HTU21D;61301;51.956;5.876;2024-01-15T13:02:27;8.91;58.74
73112;HTU21D;61301;51.956;5.876;2024-01-15T13:04:53;8.90;57.68
73112;HTU21D;61301;51.956;5.876;2024-01-15T13:07:20;8.83;58.03
73112;HTU21D;61301;51.956;5.876;2024-01-15T13:09:46;8.96;57.64
73112;HTU21D;61301;51.956;5.876;2024-01-15T13:12:12;9.04;57.65
73112;HTU21D;61301;51.956;5.876;2024-01-15T13:14:38;9.04;57.19
73112;HTU21D;61301;51.956;5.876;2024-01-15T13:17:04;9.05;57.35
73112;HTU21D;61301;51.956;5.876;2024-01-15T13:19:30;8.75;55.36
73112;HTU21D;61301;51.956;5.876;2024-01-15T13:21:59;8.61;55.85
73112;HTU21D;61301;51.956;5.876;2024-01-15T13:24:25;8.38;55.75
73112;HTU21D;61301;51.956;5.876;2024-01-15T13:26:52;8.38;55.93
73112;HTU21D;61301;51.956;5.876;2024-01-15T13:29:18;8.38;55.62
73112;HTU21D;61301;51.956;5.876;2024-01-15T13:31:44;8.31;55.91
73112;HTU21D;61301;51.956;5.876;2024-01-15T13:34:12;8.29;56.26
73112;HTU21D;61301;51.956;5.876;2024-01-15T13:36:38;8.18;56.30
73112;HTU21D;61301;51.956;5.876;2024-01-15T13:39:04;8.12;56.81
73112;HTU21D;61301;51.956;5.876;2024-01-15T13:41:35;8.19;57.35
73112;HTU21D;61301;51.956;5.876;2024-01-15T13:44:01;8.39;57.73
73112;HTU21D;61301;51.956;5.876;2024-01-15T13:46:28;8.37;57.07
73112;HTU21D;61301;51.956;5.876;2024-01-15T13:48:55;8.11;56.07
73112;HTU21D;61301;51.956;5.876;2024-01-15T13:51:22;8.00;56.76
73112;HTU21D;61301;51.956;5.876;2024-01-15T13:53:49;7.99;56.84
73112;HTU21D;61301;51.956;5.876;2024-01-15T13:56:16;7.88;57.03
73112;HTU21D;61301;51.956;5.876;2024-01-15T13:58:42;7.87;57.29
73112;HTU21D;61301;51.956;5.876;2024-01-15T14:01:09;7.91;57.55
73112;HTU21D;61301;51.956;5.876;2024-01-15T14:03:35;8.03;57.51
73112;HTU21D;61301;51.956;5.876;2024-01-15T14:06:01;8.13;56.78
73112;HTU21D;61301;51.956;5.876;2024-01-15T14:08:35;8.27;57.02
73112;HTU21D;61301;51.956;5.876;2024-01-15T14:11:05;8.57;56.02
73112;HTU21D;61301;51.956;5.876;2024-01-15T14:13:33;8.66;56.66
73112;HTU21D;61301;51.956;5.876;2024-01-15T14:15:59;8.92;56.80
73112;HTU21D;61301;51.956;5.876;2024-01-15T14:18:26;9.06;56.47
73112;HTU21D;61301;51.956;5.876;2024-01-15T14:20:52;8.97;55.67
73112;HTU21D;61301;51.956;5.876;2024-01-15T14:23:20;8.89;56.24
73112;HTU21D;61301;51.956;5.876;2024-01-15T14:25:46;8.78;55.88
73112;HTU21D;61301;51.956;5.876;2024-01-15T14:28:12;8.72;55.65
73112;HTU21D;61301;51.956;5.876;2024-01-15T14:30:38;8.65;56.35
73112;HTU21D;61301;51.956;5.876;2024-01-15T14:33:04;8.61;55.23
73112;HTU21D;61301;51.956;5.876;2024-01-15T14:35:30;8.48;55.98
73112;HTU21D;61301;51.956;5.876;2024-01-15T14:37:56;8.36;56.10
73112;HTU21D;61301;51.956;5.876;2024-01-15T14:40:25;8.26;55.99
73112;HTU21D;61301;51.956;5.876;2024-01-15T14:42:51;8.14;55.71
73112;HTU21D;61301;51.956;5.876;2024-01-15T14:45:17;8.13;56.45
73112;HTU21D;61301;51.956;5.876;2024-01-15T14:47:43;8.46;56.50
73112;HTU21D;61301;51.956;5.876;2024-01-15T14:50:10;8.37;55.84
73112;HTU21D;61301;51.956;5.876;2024-01-15T14:52:36;8.20;56.29
73112;HTU21D;61301;51.956;5.876;2024-01-15T14:55:02;8.03;56.52
73112;HTU21D;61301;51.956;5.876;2024-01-15T14:57:29;7.93;57.21
73112;HTU21D;61301;51.956;5.876;2024-01-15T14:59:55;7.89;57.41
73112;HTU21D;61301;51.956;5.876;2024-01-15T15:02:23;7.85;57.43
73112;HTU21D;61301;51.956;5.876;2024-01-15T15:04:52;7.82;57.60
73112;HTU21D;61301;51.956;5.876;2024-01-15T15:07:18;7.82;57.94
73112;HTU21D;61301;51.956;5.876;2024-01-15T15:09:44;7.82;57.84
73112;HTU21D;61301;51.956;5.876;2024-01-15T15:12:10;7.73;57.76
73112;HTU21D;61301;51.956;5.876;2024-01-15T15:14:36;7.63;57.90
73112;HTU21D;61301;51.956;5.876;2024-01-15T15:17:06;7.67;58.22
73112;HTU21D;61301;51.956;5.876;2024-01-15T15:19:33;7.05;59.56
73112;HTU21D;61301;51.956;5.876;2024-01-15T15:22:00;7.05;60.41
73112;HTU21D;61301;51.956;5.876;2024-01-15T15:24:26;7.09;60.28
73112;HTU21D;61301;51.956;5.876;2024-01-15T15:26:52;7.04;59.86
73112;HTU21D;61301;51.956;5.876;2024-01-15T15:29:18;7.05;59.69
73112;HTU21D;61301;51.956;5.876;2024-01-15T15:31:45;7.07;59.93
73112;HTU21D;61301;51.956;5.876;2024-01-15T15:34:12;7.02;59.54
73112;HTU21D;61301;51.956;5.876;2024-01-15T15:36:38;7.39;58.01
73112;HTU21D;61301;51.956;5.876;2024-01-15T15:39:04;7.39;58.13
73112;HTU21D;61301;51.956;5.876;2024-01-15T15:41:31;7.38;58.44
73112;HTU21D;61301;51.956;5.876;2024-01-15T15:43:57;7.32;58.51